Antonio Y Angelita — EA5637 — position and weather

sailwx.info

Track history (hours):
 
Tides and Currents Weather Stations Pressure Air Temp Water Temp Dewpoint Dewpoint Depression Visibility Wind Speed Wind Dir Waves Ship Positions

Antonio Y Angelita

Last reported at 2018-Jun-22 04:55 UTC. Time now 2018-Jun-23 07:48 UTC.
Position N 36°54' W 000°50'.

Length 19 m; draft 3 m.

Type: Fishing. MMSI: 224031340.

Date/timePositionNaut miles runAvg speedWind from/ knotsBaromVisibWave heightAir tempDewpointWater temp
2018-Jun-22 04:55N 36°54' W 000°50'3 7.3
2018-Jun-22 04:30N 36°54' W 000°46'2 3.9
2018-Jun-22 04:00N 36°52' W 000°47'9 4.8
2018-Jun-22 02:04N 36°50' W 000°58'7 7.3
2018-Jun-22 01:06N 36°50' W 000°50'1 7.0
2018-Jun-22 00:55N 36°50' W 000°48'3 6.7
2018-Jun-22 00:29N 36°50' W 000°44'  
2018-Jun-18 08:48N 36°48' W 000°48'1 1.8
2018-Jun-18 08:07N 36°48' W 000°47'1 1.5
2018-Jun-18 07:39N 36°48' W 000°46'1 1.2
2018-Jun-18 07:09N 36°48' W 000°45'0 0.8
2018-Jun-18 06:42N 36°48' W 000°45'1 0.6
2018-Jun-18 05:47N 36°49' W 000°45'0 0.5
2018-Jun-18 05:30N 36°49' W 000°45'1 1.0
2018-Jun-18 04:04N 36°50' W 000°46'0 1.2
2018-Jun-18 03:59N 36°50' W 000°46'1 1.3
2018-Jun-18 03:30N 36°51' W 000°46'1 1.3
2018-Jun-18 03:00N 36°51' W 000°46'1 1.4
2018-Jun-18 02:30N 36°52' W 000°47'1 1.6
2018-Jun-18 02:00N 36°53' W 000°47'1 1.7
2018-Jun-18 01:24N 36°54' W 000°47'1 1.5
2018-Jun-18 01:00N 36°54' W 000°48'1 1.7
2018-Jun-18 00:30N 36°55' W 000°48'1 1.7
2018-Jun-18 00:00N 36°56' W 000°49'1 1.1
2018-Jun-17 23:28N 36°56' W 000°49'1 1.4
2018-Jun-17 22:55N 36°57' W 000°50'5 1.7
2018-Jun-17 19:38N 36°56' W 000°57'0 0.4
2018-Jun-17 19:23N 36°56' W 000°57'7 0.2
2018-Jun-15 23:49N 36°52' W 000°50'2 6.3
2018-Jun-15 23:30N 36°52' W 000°48'3 6.5
2018-Jun-15 23:00N 36°52' W 000°44'3 5.2
2018-Jun-15 22:30N 36°54' W 000°46'9 7.8
2018-Jun-15 21:23N 36°54' W 000°57'  
Track history (hours):
 
Tides and Currents Weather Stations Pressure Air Temp Water Temp Dewpoint Dewpoint Depression Visibility Wind Speed Wind Dir Waves Ship Positions

Antonio Y Angelita

Last reported at 2018-Jun-22 04:55 UTC. Time now 2018-Jun-23 07:48 UTC.
Position N 36°54' W 000°50'.

Length 19 m; draft 3 m.

Type: Fishing. MMSI: 224031340.

Date/timePositionNaut miles runAvg speedWind from/ knotsBaromVisibWave heightAir tempDewpointWater temp
2018-Jun-22 04:55N 36°54' W 000°50'3 7.3
2018-Jun-22 04:30N 36°54' W 000°46'2 3.9
2018-Jun-22 04:00N 36°52' W 000°47'9 4.8
2018-Jun-22 02:04N 36°50' W 000°58'7 7.3
2018-Jun-22 01:06N 36°50' W 000°50'1 7.0
2018-Jun-22 00:55N 36°50' W 000°48'3 6.7
2018-Jun-22 00:29N 36°50' W 000°44'  
2018-Jun-18 08:48N 36°48' W 000°48'1 1.8
2018-Jun-18 08:07N 36°48' W 000°47'1 1.5
2018-Jun-18 07:39N 36°48' W 000°46'1 1.2
2018-Jun-18 07:09N 36°48' W 000°45'0 0.8
2018-Jun-18 06:42N 36°48' W 000°45'1 0.6
2018-Jun-18 05:47N 36°49' W 000°45'0 0.5
2018-Jun-18 05:30N 36°49' W 000°45'1 1.0
2018-Jun-18 04:04N 36°50' W 000°46'0 1.2
2018-Jun-18 03:59N 36°50' W 000°46'1 1.3
2018-Jun-18 03:30N 36°51' W 000°46'1 1.3
2018-Jun-18 03:00N 36°51' W 000°46'1 1.4
2018-Jun-18 02:30N 36°52' W 000°47'1 1.6
2018-Jun-18 02:00N 36°53' W 000°47'1 1.7
2018-Jun-18 01:24N 36°54' W 000°47'1 1.5
2018-Jun-18 01:00N 36°54' W 000°48'1 1.7
2018-Jun-18 00:30N 36°55' W 000°48'1 1.7
2018-Jun-18 00:00N 36°56' W 000°49'1 1.1
2018-Jun-17 23:28N 36°56' W 000°49'1 1.4
2018-Jun-17 22:55N 36°57' W 000°50'5 1.7
2018-Jun-17 19:38N 36°56' W 000°57'0 0.4
2018-Jun-17 19:23N 36°56' W 000°57'7 0.2
2018-Jun-15 23:49N 36°52' W 000°50'2 6.3
2018-Jun-15 23:30N 36°52' W 000°48'3 6.5
2018-Jun-15 23:00N 36°52' W 000°44'3 5.2
2018-Jun-15 22:30N 36°54' W 000°46'9 7.8
2018-Jun-15 21:23N 36°54' W 000°57'  

Dump ship's entire track history